sensor_id;sensor_type;location;lat;lon;timestamp;pressure;altitude;pressure_sealevel;temperature;humidity
65175;BME280;51761;42.126;24.752;2023-02-12T00:01:32;100623.81;;;1.64;45.32
65175;BME280;51761;42.126;24.752;2023-02-12T00:03:59;100638.66;;;1.71;44.45
65175;BME280;51761;42.126;24.752;2023-02-12T00:06:24;100640.28;;;1.84;43.87
65175;BME280;51761;42.126;24.752;2023-02-12T00:08:52;100630.63;;;1.78;43.78
65175;BME280;51761;42.126;24.752;2023-02-12T00:11:21;100651.81;;;2.10;42.92
65175;BME280;51761;42.126;24.752;2023-02-12T00:13:47;100623.44;;;1.98;42.56
65175;BME280;51761;42.126;24.752;2023-02-12T00:16:15;100644.22;;;2.19;42.31
65175;BME280;51761;42.126;24.752;2023-02-12T00:18:42;100626.00;;;2.27;41.82
65175;BME280;51761;42.126;24.752;2023-02-12T00:21:07;100641.06;;;2.29;41.55
65175;BME280;51761;42.126;24.752;2023-02-12T00:23:33;100637.16;;;2.30;41.41
65175;BME280;51761;42.126;24.752;2023-02-12T00:25:59;100629.78;;;2.34;41.52
65175;BME280;51761;42.126;24.752;2023-02-12T00:28:25;100610.69;;;2.17;41.61
65175;BME280;51761;42.126;24.752;2023-02-12T00:30:50;100617.41;;;2.28;41.35
65175;BME280;51761;42.126;24.752;2023-02-12T00:33:16;100610.50;;;2.34;41.10
65175;BME280;51761;42.126;24.752;2023-02-12T00:35:41;100601.28;;;2.42;40.65
65175;BME280;51761;42.126;24.752;2023-02-12T00:38:07;100606.91;;;2.58;40.30
65175;BME280;51761;42.126;24.752;2023-02-12T00:40:32;100592.56;;;2.64;39.96
65175;BME280;51761;42.126;24.752;2023-02-12T00:42:58;100573.81;;;2.70;39.45
65175;BME280;51761;42.126;24.752;2023-02-12T00:45:23;100591.81;;;2.91;39.26
65175;BME280;51761;42.126;24.752;2023-02-12T00:47:49;100601.31;;;3.06;39.09
65175;BME280;51761;42.126;24.752;2023-02-12T00:50:14;100584.84;;;3.09;38.87
65175;BME280;51761;42.126;24.752;2023-02-12T00:52:40;100569.44;;;3.08;38.27
65175;BME280;51761;42.126;24.752;2023-02-12T00:55:05;100561.59;;;3.10;38.21
65175;BME280;51761;42.126;24.752;2023-02-12T00:57:31;100562.63;;;3.17;37.88
65175;BME280;51761;42.126;24.752;2023-02-12T00:59:58;100559.97;;;3.21;37.86
65175;BME280;51761;42.126;24.752;2023-02-12T01:02:23;100553.88;;;3.15;37.87
65175;BME280;51761;42.126;24.752;2023-02-12T01:04:49;100571.06;;;3.36;37.77
65175;BME280;51761;42.126;24.752;2023-02-12T01:07:14;100563.03;;;3.31;37.78
65175;BME280;51761;42.126;24.752;2023-02-12T01:09:40;100569.09;;;3.37;37.51
65175;BME280;51761;42.126;24.752;2023-02-12T01:12:06;100575.97;;;3.43;37.47
65175;BME280;51761;42.126;24.752;2023-02-12T01:14:31;100570.38;;;3.55;37.09
65175;BME280;51761;42.126;24.752;2023-02-12T01:16:57;100524.47;;;3.35;37.02
65175;BME280;51761;42.126;24.752;2023-02-12T01:19:22;100541.31;;;3.45;36.92
65175;BME280;51761;42.126;24.752;2023-02-12T01:21:48;100545.09;;;3.53;36.55
65175;BME280;51761;42.126;24.752;2023-02-12T01:24:13;100560.84;;;3.68;36.51
65175;BME280;51761;42.126;24.752;2023-02-12T01:26:39;100533.59;;;3.51;36.63
65175;BME280;51761;42.126;24.752;2023-02-12T01:29:06;100543.50;;;3.67;36.22
65175;BME280;51761;42.126;24.752;2023-02-12T01:31:35;100524.69;;;3.57;36.17
65175;BME280;51761;42.126;24.752;2023-02-12T01:34:02;100553.94;;;3.74;36.09
65175;BME280;51761;42.126;24.752;2023-02-12T01:36:29;100532.34;;;3.64;36.07
65175;BME280;51761;42.126;24.752;2023-02-12T01:38:55;100528.53;;;3.68;36.26
65175;BME280;51761;42.126;24.752;2023-02-12T01:41:24;100549.13;;;3.71;36.45
65175;BME280;51761;42.126;24.752;2023-02-12T01:46:34;100529.41;;;3.57;36.48
65175;BME280;51761;42.126;24.752;2023-02-12T01:49:01;100530.38;;;3.49;36.79
65175;BME280;51761;42.126;24.752;2023-02-12T01:51:27;100541.72;;;3.59;36.61
65175;BME280;51761;42.126;24.752;2023-02-12T01:53:55;100545.38;;;3.63;36.72
65175;BME280;51761;42.126;24.752;2023-02-12T01:56:23;100538.06;;;3.55;36.48
65175;BME280;51761;42.126;24.752;2023-02-12T01:58:50;100523.72;;;3.65;36.21
65175;BME280;51761;42.126;24.752;2023-02-12T02:01:25;100533.06;;;3.76;35.93
65175;BME280;51761;42.126;24.752;2023-02-12T02:03:57;100539.41;;;3.77;35.87
65175;BME280;51761;42.126;24.752;2023-02-12T02:06:37;100541.09;;;3.81;35.77
65175;BME280;51761;42.126;24.752;2023-02-12T02:09:04;100530.50;;;3.83;35.45
65175;BME280;51761;42.126;24.752;2023-02-12T02:11:30;100528.53;;;3.84;35.77
65175;BME280;51761;42.126;24.752;2023-02-12T02:14:14;100520.06;;;3.77;35.60
65175;BME280;51761;42.126;24.752;2023-02-12T02:25:14;100536.44;;;3.54;36.07
65175;BME280;51761;42.126;24.752;2023-02-12T02:39:01;100554.53;;;3.52;35.89
65175;BME280;51761;42.126;24.752;2023-02-12T02:41:47;100560.22;;;3.59;35.44
65175;BME280;51761;42.126;24.752;2023-02-12T02:44:21;100544.91;;;3.61;35.61
65175;BME280;51761;42.126;24.752;2023-02-12T02:46:50;100553.72;;;3.67;35.75
65175;BME280;51761;42.126;24.752;2023-02-12T02:49:21;100543.22;;;3.72;35.51
65175;BME280;51761;42.126;24.752;2023-02-12T02:51:52;100550.53;;;3.80;35.49
65175;BME280;51761;42.126;24.752;2023-02-12T02:54:37;100540.41;;;3.69;35.87
65175;BME280;51761;42.126;24.752;2023-02-12T02:57:35;100550.19;;;3.82;35.39
65175;BME280;51761;42.126;24.752;2023-02-12T03:00:10;100534.59;;;3.58;35.54
65175;BME280;51761;42.126;24.752;2023-02-12T03:02:39;100563.56;;;3.80;36.11
65175;BME280;51761;42.126;24.752;2023-02-12T03:05:43;100543.78;;;3.78;36.07
65175;BME280;51761;42.126;24.752;2023-02-12T03:08:18;100532.19;;;3.72;36.23
65175;BME280;51761;42.126;24.752;2023-02-12T03:10:52;100541.47;;;3.80;36.35
65175;BME280;51761;42.126;24.752;2023-02-12T03:13:27;100548.22;;;3.82;36.21
65175;BME280;51761;42.126;24.752;2023-02-12T03:16:02;100559.63;;;3.81;36.54
65175;BME280;51761;42.126;24.752;2023-02-12T03:18:41;100534.69;;;3.93;36.13
65175;BME280;51761;42.126;24.752;2023-02-12T03:21:11;100546.63;;;3.97;36.40
65175;BME280;51761;42.126;24.752;2023-02-12T03:26:46;100541.56;;;3.99;36.62
65175;BME280;51761;42.126;24.752;2023-02-12T03:29:13;100540.75;;;3.98;36.52
65175;BME280;51761;42.126;24.752;2023-02-12T03:31:57;100536.81;;;3.99;36.46
65175;BME280;51761;42.126;24.752;2023-02-12T03:37:55;100535.09;;;4.10;35.69
65175;BME280;51761;42.126;24.752;2023-02-12T03:40:26;100526.59;;;4.00;35.95
65175;BME280;51761;42.126;24.752;2023-02-12T03:45:37;100528.97;;;4.01;36.06
65175;BME280;51761;42.126;24.752;2023-02-12T03:50:41;100507.84;;;3.93;35.75
65175;BME280;51761;42.126;24.752;2023-02-12T03:53:08;100533.16;;;4.11;35.59
65175;BME280;51761;42.126;24.752;2023-02-12T03:55:38;100532.00;;;4.12;35.51
65175;BME280;51761;42.126;24.752;2023-02-12T03:58:08;100530.28;;;4.07;35.34
65175;BME280;51761;42.126;24.752;2023-02-12T04:00:37;100535.59;;;4.12;35.33
65175;BME280;51761;42.126;24.752;2023-02-12T04:03:05;100545.28;;;4.06;35.68
65175;BME280;51761;42.126;24.752;2023-02-12T04:05:31;100529.06;;;4.05;35.87
65175;BME280;51761;42.126;24.752;2023-02-12T04:07:57;100536.72;;;3.96;36.36
65175;BME280;51761;42.126;24.752;2023-02-12T04:10:32;100532.34;;;3.95;36.46
65175;BME280;51761;42.126;24.752;2023-02-12T04:18:44;100541.56;;;4.14;36.46
65175;BME280;51761;42.126;24.752;2023-02-12T04:24:04;100551.16;;;4.20;35.54
65175;BME280;51761;42.126;24.752;2023-02-12T04:29:56;100561.06;;;4.21;35.56
65175;BME280;51761;42.126;24.752;2023-02-12T04:32:56;100564.44;;;4.15;35.47
65175;BME280;51761;42.126;24.752;2023-02-12T04:35:34;100537.63;;;4.15;35.37
65175;BME280;51761;42.126;24.752;2023-02-12T04:38:22;100559.63;;;4.27;35.52
65175;BME280;51761;42.126;24.752;2023-02-12T04:40:49;100556.31;;;4.37;35.27
65175;BME280;51761;42.126;24.752;2023-02-12T04:43:27;100537.16;;;4.29;35.36
65175;BME280;51761;42.126;24.752;2023-02-12T04:45:53;100561.41;;;4.35;35.27
65175;BME280;51761;42.126;24.752;2023-02-12T04:48:18;100563.69;;;4.49;35.40
65175;BME280;51761;42.126;24.752;2023-02-12T04:50:44;100568.72;;;4.43;35.15
65175;BME280;51761;42.126;24.752;2023-02-12T04:53:10;100542.56;;;4.41;35.08
65175;BME280;51761;42.126;24.752;2023-02-12T04:55:36;100566.38;;;4.61;35.11
65175;BME280;51761;42.126;24.752;2023-02-12T04:58:02;100570.00;;;4.64;35.31
65175;BME280;51761;42.126;24.752;2023-02-12T05:00:28;100574.22;;;4.59;35.37
65175;BME280;51761;42.126;24.752;2023-02-12T05:02:53;100562.44;;;4.62;35.54
65175;BME280;51761;42.126;24.752;2023-02-12T05:05:20;100576.56;;;4.57;35.95
65175;BME280;51761;42.126;24.752;2023-02-12T05:07:45;100574.94;;;4.56;35.71
65175;BME280;51761;42.126;24.752;2023-02-12T05:10:11;100574.94;;;4.56;35.74
65175;BME280;51761;42.126;24.752;2023-02-12T05:12:36;100566.56;;;4.52;35.82
65175;BME280;51761;42.126;24.752;2023-02-12T05:15:02;100574.94;;;4.56;36.17
65175;BME280;51761;42.126;24.752;2023-02-12T05:17:27;100585.81;;;4.49;35.89
65175;BME280;51761;42.126;24.752;2023-02-12T05:19:53;100574.78;;;4.33;36.41
65175;BME280;51761;42.126;24.752;2023-02-12T05:22:18;100601.44;;;4.57;36.32
65175;BME280;51761;42.126;24.752;2023-02-12T05:24:44;100598.16;;;4.51;36.44
65175;BME280;51761;42.126;24.752;2023-02-12T05:27:09;100600.53;;;4.53;36.72
65175;BME280;51761;42.126;24.752;2023-02-12T05:29:35;100606.16;;;4.56;37.28
65175;BME280;51761;42.126;24.752;2023-02-12T05:32:01;100586.00;;;4.56;36.93
65175;BME280;51761;42.126;24.752;2023-02-12T05:34:26;100598.03;;;4.63;37.50
65175;BME280;51761;42.126;24.752;2023-02-12T05:36:52;100592.75;;;4.73;37.42
65175;BME280;51761;42.126;24.752;2023-02-12T05:39:17;100584.63;;;4.65;36.71
65175;BME280;51761;42.126;24.752;2023-02-12T05:41:43;100598.28;;;4.73;36.50
65175;BME280;51761;42.126;24.752;2023-02-12T05:44:09;100573.78;;;4.57;36.75
65175;BME280;51761;42.126;24.752;2023-02-12T05:46:37;100596.75;;;4.76;36.73
65175;BME280;51761;42.126;24.752;2023-02-12T05:49:02;100605.41;;;4.74;36.85
65175;BME280;51761;42.126;24.752;2023-02-12T05:51:29;100582.16;;;4.60;36.80
65175;BME280;51761;42.126;24.752;2023-02-12T05:53:58;100607.97;;;4.83;36.35
65175;BME280;51761;42.126;24.752;2023-02-12T05:56:29;100616.72;;;4.85;36.62
65175;BME280;51761;42.126;24.752;2023-02-12T05:59:00;100587.28;;;4.77;36.59
65175;BME280;51761;42.126;24.752;2023-02-12T06:01:35;100604.13;;;4.87;36.76
65175;BME280;51761;42.126;24.752;2023-02-12T06:04:03;100594.72;;;4.92;36.43
65175;BME280;51761;42.126;24.752;2023-02-12T06:06:30;100612.97;;;5.12;36.55
65175;BME280;51761;42.126;24.752;2023-02-12T06:08:56;100610.31;;;5.15;36.66
65175;BME280;51761;42.126;24.752;2023-02-12T06:11:22;100612.50;;;5.25;36.81
65175;BME280;51761;42.126;24.752;2023-02-12T06:13:49;100587.13;;;5.23;36.92
65175;BME280;51761;42.126;24.752;2023-02-12T06:16:27;100613.38;;;5.48;37.08
65175;BME280;51761;42.126;24.752;2023-02-12T06:18:54;100605.84;;;5.49;36.82
65175;BME280;51761;42.126;24.752;2023-02-12T06:21:21;100613.16;;;5.57;36.85
65175;BME280;51761;42.126;24.752;2023-02-12T06:23:48;100612.19;;;5.68;36.62
65175;BME280;51761;42.126;24.752;2023-02-12T06:26:14;100593.06;;;5.63;36.50
65175;BME280;51761;42.126;24.752;2023-02-12T06:28:40;100604.75;;;5.72;36.69
65175;BME280;51761;42.126;24.752;2023-02-12T06:31:29;100620.38;;;5.80;36.64
65175;BME280;51761;42.126;24.752;2023-02-12T06:33:59;100609.41;;;5.87;36.56
65175;BME280;51761;42.126;24.752;2023-02-12T06:36:25;100601.47;;;5.86;36.75
65175;BME280;51761;42.126;24.752;2023-02-12T06:38:51;100622.41;;;6.06;36.92
65175;BME280;51761;42.126;24.752;2023-02-12T06:41:17;100618.22;;;6.15;37.92
65175;BME280;51761;42.126;24.752;2023-02-12T06:43:43;100624.16;;;6.36;37.48
65175;BME280;51761;42.126;24.752;2023-02-12T06:46:08;100626.75;;;6.25;36.56
65175;BME280;51761;42.126;24.752;2023-02-12T06:48:34;100628.41;;;6.30;36.84
65175;BME280;51761;42.126;24.752;2023-02-12T06:51:12;100632.56;;;6.39;36.72
65175;BME280;51761;42.126;24.752;2023-02-12T06:53:39;100628.97;;;6.39;36.68
65175;BME280;51761;42.126;24.752;2023-02-12T06:56:06;100636.19;;;6.43;36.71
65175;BME280;51761;42.126;24.752;2023-02-12T06:58:35;100634.28;;;6.47;36.67
65175;BME280;51761;42.126;24.752;2023-02-12T07:01:15;100641.09;;;6.53;36.69
65175;BME280;51761;42.126;24.752;2023-02-12T07:03:46;100622.25;;;6.40;36.69
65175;BME280;51761;42.126;24.752;2023-02-12T07:06:12;100631.38;;;6.40;36.93
65175;BME280;51761;42.126;24.752;2023-02-12T07:08:37;100655.03;;;6.57;36.95
65175;BME280;51761;42.126;24.752;2023-02-12T07:11:04;100650.38;;;6.64;37.36
65175;BME280;51761;42.126;24.752;2023-02-12T07:13:29;100627.97;;;6.50;37.22
65175;BME280;51761;42.126;24.752;2023-02-12T07:15:55;100658.09;;;6.74;37.41
65175;BME280;51761;42.126;24.752;2023-02-12T07:18:20;100650.56;;;6.75;37.27
65175;BME280;51761;42.126;24.752;2023-02-12T07:20:46;100647.38;;;6.73;37.69
65175;BME280;51761;42.126;24.752;2023-02-12T07:23:12;100645.09;;;6.78;37.38
65175;BME280;51761;42.126;24.752;2023-02-12T07:25:38;100645.25;;;6.89;37.42
65175;BME280;51761;42.126;24.752;2023-02-12T07:28:03;100645.94;;;6.82;37.60
65175;BME280;51761;42.126;24.752;2023-02-12T07:30:29;100649.63;;;6.90;37.45
65175;BME280;51761;42.126;24.752;2023-02-12T07:32:55;100622.19;;;6.85;37.59
65175;BME280;51761;42.126;24.752;2023-02-12T07:35:20;100642.25;;;7.01;37.42
65175;BME280;51761;42.126;24.752;2023-02-12T07:37:46;100642.25;;;7.01;37.49
65175;BME280;51761;42.126;24.752;2023-02-12T07:40:11;100657.22;;;6.93;37.78
65175;BME280;51761;42.126;24.752;2023-02-12T07:42:37;100639.13;;;6.80;38.05
65175;BME280;51761;42.126;24.752;2023-02-12T07:45:02;100651.88;;;6.81;38.19
65175;BME280;51761;42.126;24.752;2023-02-12T07:47:28;100636.34;;;6.80;38.31
65175;BME280;51761;42.126;24.752;2023-02-12T07:49:53;100659.16;;;6.92;38.27
65175;BME280;51761;42.126;24.752;2023-02-12T07:52:19;100658.88;;;6.97;38.48
65175;BME280;51761;42.126;24.752;2023-02-12T07:54:46;100660.06;;;6.96;38.26
65175;BME280;51761;42.126;24.752;2023-02-12T07:57:11;100669.22;;;7.00;38.30
65175;BME280;51761;42.126;24.752;2023-02-12T07:59:37;100673.88;;;7.19;37.95
65175;BME280;51761;42.126;24.752;2023-02-12T08:02:02;100654.41;;;7.19;37.77
65175;BME280;51761;42.126;24.752;2023-02-12T08:04:28;100663.34;;;7.35;38.17
65175;BME280;51761;42.126;24.752;2023-02-12T08:06:55;100670.66;;;7.46;37.53
65175;BME280;51761;42.126;24.752;2023-02-12T08:09:23;100666.81;;;7.54;37.37
65175;BME280;51761;42.126;24.752;2023-02-12T08:11:49;100650.16;;;7.54;37.48
65175;BME280;51761;42.126;24.752;2023-02-12T08:14:17;100662.25;;;7.69;37.10
65175;BME280;51761;42.126;24.752;2023-02-12T08:16:45;100687.72;;;7.74;37.32
65175;BME280;51761;42.126;24.752;2023-02-12T08:19:11;100694.13;;;7.78;37.26
65175;BME280;51761;42.126;24.752;2023-02-12T08:21:37;100685.28;;;7.69;37.44
65175;BME280;51761;42.126;24.752;2023-02-12T08:24:02;100679.31;;;7.38;39.03
65175;BME280;51761;42.126;24.752;2023-02-12T08:26:33;100695.16;;;7.37;38.79
65175;BME280;51761;42.126;24.752;2023-02-12T08:29:08;100696.41;;;7.40;39.07
65175;BME280;51761;42.126;24.752;2023-02-12T08:31:40;100701.53;;;7.38;39.08
65175;BME280;51761;42.126;24.752;2023-02-12T08:34:19;100704.53;;;7.26;39.72
65175;BME280;51761;42.126;24.752;2023-02-12T08:36:46;100692.03;;;7.13;40.29
65175;BME280;51761;42.126;24.752;2023-02-12T08:39:14;100692.47;;;7.15;40.75
65175;BME280;51761;42.126;24.752;2023-02-12T08:41:40;100709.91;;;7.41;40.83
65175;BME280;51761;42.126;24.752;2023-02-12T08:44:09;100730.34;;;7.52;41.16
65175;BME280;51761;42.126;24.752;2023-02-12T08:46:37;100708.69;;;7.39;41.97
65175;BME280;51761;42.126;24.752;2023-02-12T08:49:06;100729.66;;;7.62;42.35
65175;BME280;51761;42.126;24.752;2023-02-12T08:51:35;100730.72;;;7.80;42.70
65175;BME280;51761;42.126;24.752;2023-02-12T08:54:05;100731.72;;;8.27;42.01
65175;BME280;51761;42.126;24.752;2023-02-12T08:56:32;100713.59;;;8.44;41.39
65175;BME280;51761;42.126;24.752;2023-02-12T08:58:59;100733.72;;;8.67;40.93
65175;BME280;51761;42.126;24.752;2023-02-12T09:01:26;100724.59;;;8.70;40.10
65175;BME280;51761;42.126;24.752;2023-02-12T09:03:52;100712.13;;;8.57;40.74
65175;BME280;51761;42.126;24.752;2023-02-12T09:06:20;100716.09;;;8.52;40.61
65175;BME280;51761;42.126;24.752;2023-02-12T09:08:46;100717.94;;;8.41;41.23
65175;BME280;51761;42.126;24.752;2023-02-12T09:11:14;100734.72;;;8.48;41.07
65175;BME280;51761;42.126;24.752;2023-02-12T09:13:41;100735.00;;;8.36;41.04
65175;BME280;51761;42.126;24.752;2023-02-12T09:16:08;100742.22;;;8.44;41.36
65175;BME280;51761;42.126;24.752;2023-02-12T09:18:34;100725.81;;;8.32;41.52
65175;BME280;51761;42.126;24.752;2023-02-12T09:21:02;100729.34;;;8.29;42.21
65175;BME280;51761;42.126;24.752;2023-02-12T09:23:28;100730.47;;;8.25;42.18
65175;BME280;51761;42.126;24.752;2023-02-12T09:25:54;100745.44;;;8.46;42.06
65175;BME280;51761;42.126;24.752;2023-02-12T09:28:20;100744.88;;;8.30;42.51
65175;BME280;51761;42.126;24.752;2023-02-12T09:30:45;100745.66;;;8.31;43.10
65175;BME280;51761;42.126;24.752;2023-02-12T09:33:11;100748.91;;;8.36;42.69
65175;BME280;51761;42.126;24.752;2023-02-12T09:35:39;100738.59;;;8.37;42.65
65175;BME280;51761;42.126;24.752;2023-02-12T09:38:05;100743.41;;;8.43;42.90
65175;BME280;51761;42.126;24.752;2023-02-12T09:51:27;100764.25;;;8.56;43.08
65175;BME280;51761;42.126;24.752;2023-02-12T09:54:08;100733.22;;;8.21;43.38
65175;BME280;51761;42.126;24.752;2023-02-12T09:56:37;100736.28;;;8.46;43.62
65175;BME280;51761;42.126;24.752;2023-02-12T09:59:06;100747.44;;;8.49;43.01
65175;BME280;51761;42.126;24.752;2023-02-12T10:01:33;100750.91;;;8.76;42.76
65175;BME280;51761;42.126;24.752;2023-02-12T10:03:59;100736.09;;;9.12;41.85
65175;BME280;51761;42.126;24.752;2023-02-12T10:06:27;100748.59;;;9.35;41.67
65175;BME280;51761;42.126;24.752;2023-02-12T10:18:03;100739.66;;;11.59;37.16
65175;BME280;51761;42.126;24.752;2023-02-12T10:27:52;100739.06;;;12.27;35.07
65175;BME280;51761;42.126;24.752;2023-02-12T10:30:34;100735.66;;;12.63;34.77
65175;BME280;51761;42.126;24.752;2023-02-12T10:33:25;100728.34;;;12.76;34.22
65175;BME280;51761;42.126;24.752;2023-02-12T10:38:43;100722.34;;;12.78;34.39
65175;BME280;51761;42.126;24.752;2023-02-12T10:41:13;100739.69;;;12.56;34.56
65175;BME280;51761;42.126;24.752;2023-02-12T10:43:40;100734.81;;;12.66;34.27
65175;BME280;51761;42.126;24.752;2023-02-12T10:46:12;100738.53;;;12.46;35.71
65175;BME280;51761;42.126;24.752;2023-02-12T10:48:39;100730.84;;;12.60;34.81
65175;BME280;51761;42.126;24.752;2023-02-12T10:53:34;100732.97;;;13.85;33.96
65175;BME280;51761;42.126;24.752;2023-02-12T10:58:54;100716.50;;;13.53;32.96
65175;BME280;51761;42.126;24.752;2023-02-12T11:03:54;100726.28;;;14.09;32.52
65175;BME280;51761;42.126;24.752;2023-02-12T11:06:25;100742.78;;;14.40;31.95
65175;BME280;51761;42.126;24.752;2023-02-12T11:08:52;100739.59;;;14.38;31.11
65175;BME280;51761;42.126;24.752;2023-02-12T11:11:21;100739.81;;;14.77;31.88
65175;BME280;51761;42.126;24.752;2023-02-12T11:14:04;100738.13;;;15.55;30.87
65175;BME280;51761;42.126;24.752;2023-02-12T11:16:35;100745.56;;;15.19;29.87
65175;BME280;51761;42.126;24.752;2023-02-12T11:19:07;100744.31;;;14.97;30.16
65175;BME280;51761;42.126;24.752;2023-02-12T11:21:42;100731.81;;;14.75;29.96
65175;BME280;51761;42.126;24.752;2023-02-12T11:26:49;100758.19;;;14.28;31.72
65175;BME280;51761;42.126;24.752;2023-02-12T11:29:22;100751.88;;;13.81;31.81
65175;BME280;51761;42.126;24.752;2023-02-12T11:32:06;100760.06;;;13.21;32.32
65175;BME280;51761;42.126;24.752;2023-02-12T11:34:35;100751.28;;;13.19;32.59
65175;BME280;51761;42.126;24.752;2023-02-12T11:37:00;100757.00;;;13.05;34.37
65175;BME280;51761;42.126;24.752;2023-02-12T11:39:35;100765.44;;;13.05;33.19
65175;BME280;51761;42.126;24.752;2023-02-12T11:42:02;100758.94;;;13.15;33.59
65175;BME280;51761;42.126;24.752;2023-02-12T11:44:34;100754.78;;;12.72;34.95
65175;BME280;51761;42.126;24.752;2023-02-12T11:47:04;100760.78;;;12.74;34.22
65175;BME280;51761;42.126;24.752;2023-02-12T11:49:38;100756.34;;;12.80;33.53
65175;BME280;51761;42.126;24.752;2023-02-12T11:52:05;100747.66;;;12.60;33.55
65175;BME280;51761;42.126;24.752;2023-02-12T11:54:38;100742.91;;;12.51;33.48
65175;BME280;51761;42.126;24.752;2023-02-12T11:57:05;100762.81;;;12.73;34.11
65175;BME280;51761;42.126;24.752;2023-02-12T12:02:03;100725.91;;;12.82;33.20
65175;BME280;51761;42.126;24.752;2023-02-12T12:04:34;100750.91;;;13.17;33.50
65175;BME280;51761;42.126;24.752;2023-02-12T12:07:13;100751.75;;;13.10;33.26
65175;BME280;51761;42.126;24.752;2023-02-12T12:15:14;100755.50;;;12.11;34.95
65175;BME280;51761;42.126;24.752;2023-02-12T12:18:07;100739.25;;;11.54;35.28
65175;BME280;51761;42.126;24.752;2023-02-12T12:23:56;100754.84;;;11.44;35.86
65175;BME280;51761;42.126;24.752;2023-02-12T12:26:27;100744.50;;;11.24;36.13
65175;BME280;51761;42.126;24.752;2023-02-12T12:31:42;100774.44;;;11.20;36.21
65175;BME280;51761;42.126;24.752;2023-02-12T12:34:18;100773.66;;;11.23;36.13
65175;BME280;51761;42.126;24.752;2023-02-12T12:47:44;100793.56;;;10.76;37.38
65175;BME280;51761;42.126;24.752;2023-02-12T12:50:28;100794.28;;;10.52;37.68
65175;BME280;51761;42.126;24.752;2023-02-12T12:58:31;100790.72;;;10.52;37.87
65175;BME280;51761;42.126;24.752;2023-02-12T13:11:51;100804.78;;;10.97;37.08
65175;BME280;51761;42.126;24.752;2023-02-12T13:14:39;100807.97;;;11.02;37.46
65175;BME280;51761;42.126;24.752;2023-02-12T13:22:59;100818.34;;;10.85;37.29
65175;BME280;51761;42.126;24.752;2023-02-12T13:28:37;100806.63;;;10.48;37.42
65175;BME280;51761;42.126;24.752;2023-02-12T13:31:08;100825.38;;;10.40;37.78
65175;BME280;51761;42.126;24.752;2023-02-12T13:33:49;100818.22;;;10.39;37.61
65175;BME280;51761;42.126;24.752;2023-02-12T13:36:16;100831.03;;;10.51;38.13
65175;BME280;51761;42.126;24.752;2023-02-12T13:38:56;100826.97;;;10.45;37.33
65175;BME280;51761;42.126;24.752;2023-02-12T13:41:23;100818.91;;;10.22;37.56
65175;BME280;51761;42.126;24.752;2023-02-12T13:47:49;100842.13;;;10.44;37.65
65175;BME280;51761;42.126;24.752;2023-02-12T13:52:41;100829.31;;;10.29;37.94
65175;BME280;51761;42.126;24.752;2023-02-12T14:01:04;100849.25;;;10.24;38.56
65175;BME280;51761;42.126;24.752;2023-02-12T14:03:32;100841.28;;;10.26;38.57
65175;BME280;51761;42.126;24.752;2023-02-12T14:06:20;100862.88;;;10.39;38.30
65175;BME280;51761;42.126;24.752;2023-02-12T14:08:50;100848.78;;;10.11;38.54
65175;BME280;51761;42.126;24.752;2023-02-12T14:11:21;100866.34;;;10.19;38.54
65175;BME280;51761;42.126;24.752;2023-02-12T14:13:55;100870.31;;;10.14;38.76
65175;BME280;51761;42.126;24.752;2023-02-12T14:16:40;100876.72;;;10.18;38.85
65175;BME280;51761;42.126;24.752;2023-02-12T14:22:12;100897.56;;;10.35;38.63
65175;BME280;51761;42.126;24.752;2023-02-12T14:24:45;100884.81;;;10.37;38.81
65175;BME280;51761;42.126;24.752;2023-02-12T14:27:45;100894.59;;;10.07;40.25
65175;BME280;51761;42.126;24.752;2023-02-12T14:38:00;100923.13;;;9.90;41.57
65175;BME280;51761;42.126;24.752;2023-02-12T14:42:57;100921.94;;;9.91;41.39
65175;BME280;51761;42.126;24.752;2023-02-12T14:45:30;100932.66;;;9.82;41.70
65175;BME280;51761;42.126;24.752;2023-02-12T14:47:55;100921.13;;;9.87;41.04
65175;BME280;51761;42.126;24.752;2023-02-12T14:50:27;100950.22;;;9.82;41.97
65175;BME280;51761;42.126;24.752;2023-02-12T14:53:02;100946.50;;;9.68;41.65
65175;BME280;51761;42.126;24.752;2023-02-12T14:55:33;100956.22;;;9.44;42.27
65175;BME280;51761;42.126;24.752;2023-02-12T14:58:03;100965.88;;;9.54;41.98
65175;BME280;51761;42.126;24.752;2023-02-12T15:00:38;100947.38;;;9.36;42.08
65175;BME280;51761;42.126;24.752;2023-02-12T15:03:18;100956.97;;;9.41;42.34
65175;BME280;51761;42.126;24.752;2023-02-12T15:05:48;100981.00;;;9.53;42.33
65175;BME280;51761;42.126;24.752;2023-02-12T15:10:49;100965.75;;;9.07;43.08
65175;BME280;51761;42.126;24.752;2023-02-12T15:13:55;100997.84;;;9.27;43.32
65175;BME280;51761;42.126;24.752;2023-02-12T15:16:23;101003.84;;;9.29;42.97
65175;BME280;51761;42.126;24.752;2023-02-12T15:21:23;101005.03;;;9.28;43.47
65175;BME280;51761;42.126;24.752;2023-02-12T15:26:32;101012.59;;;9.28;43.35
65175;BME280;51761;42.126;24.752;2023-02-12T15:28:59;101026.53;;;9.28;43.25
65175;BME280;51761;42.126;24.752;2023-02-12T15:31:27;101021.13;;;9.09;43.58
65175;BME280;51761;42.126;24.752;2023-02-12T15:33:56;101023.97;;;9.12;43.82
65175;BME280;51761;42.126;24.752;2023-02-12T15:36:24;101039.72;;;9.01;44.20
65175;BME280;51761;42.126;24.752;2023-02-12T15:38:54;101044.88;;;8.99;44.18
65175;BME280;51761;42.126;24.752;2023-02-12T15:41:28;101050.72;;;8.91;44.22
65175;BME280;51761;42.126;24.752;2023-02-12T15:44:00;101047.91;;;8.87;44.64
65175;BME280;51761;42.126;24.752;2023-02-12T15:46:26;101027.00;;;8.71;44.68
65175;BME280;51761;42.126;24.752;2023-02-12T15:48:52;101064.66;;;8.91;44.85
65175;BME280;51761;42.126;24.752;2023-02-12T15:51:29;101061.63;;;8.73;45.39